RYR4772 EDDK-ESSA
Flight info
| Callsign | RYR4772 |
|---|---|
| Flight time | N/A |
| Altitude | 37000 |
| Route | PODIP1R/31R PODIP Y867 PELUN DCT ANZIV DCT WRB Y867 TOLGI DCT ELKIM DCT MIKNA N851 PELUP Z226 NILUG |
| Aircraft | B38M/M-SDE1FGHILORVWXY/HB1 |
Departure
| Time | 2026-05-06 19:35 |
|---|---|
| Airport | Cologne Bonn Airport (EDDK) |
Arrival
| Time | N/A |
|---|---|
| Airport | Stockholm-Arlanda Airport (ESSA) |
| Time | Latitude | Longitude | Altitude | Speed | Heading |
|---|---|---|---|---|---|
| 2026-05-06 18:41 | 50.87720 | 7.12155 | 234 ft | 0 kts | 51° |
| 2026-05-06 19:17 | 50.87718 | 7.12151 | 234 ft | 3 kts | 51° |
| 2026-05-06 19:17 | 50.87704 | 7.12124 | 235 ft | 2 kts | 51° |
| 2026-05-06 19:17 | 50.87690 | 7.12102 | 237 ft | 3 kts | 27° |
| 2026-05-06 19:17 | 50.87668 | 7.12090 | 239 ft | 3 kts | 19° |
| 2026-05-06 19:18 | 50.87651 | 7.12078 | 237 ft | 3 kts | 49° |
| 2026-05-06 19:18 | 50.87647 | 7.12052 | 237 ft | 3 kts | 107° |
| 2026-05-06 19:18 | 50.87654 | 7.12026 | 238 ft | 1 kts | 117° |
| 2026-05-06 19:18 | 50.87646 | 7.12051 | 237 ft | 3 kts | 117° |
| 2026-05-06 19:19 | 50.87635 | 7.12084 | 236 ft | 3 kts | 117° |
| 2026-05-06 19:19 | 50.87624 | 7.12117 | 234 ft | 3 kts | 117° |
| 2026-05-06 19:19 | 50.87613 | 7.12150 | 237 ft | 3 kts | 117° |
| 2026-05-06 19:19 | 50.87608 | 7.12163 | 236 ft | 1 kts | 117° |
| 2026-05-06 19:22 | 50.87608 | 7.12164 | 236 ft | 1 kts | 117° |
| 2026-05-06 19:22 | 50.87595 | 7.12204 | 237 ft | 8 kts | 117° |
| 2026-05-06 19:22 | 50.87563 | 7.12299 | 235 ft | 9 kts | 118° |
| 2026-05-06 19:23 | 50.87538 | 7.12378 | 236 ft | 7 kts | 103° |
| 2026-05-06 19:23 | 50.87562 | 7.12443 | 234 ft | 8 kts | 28° |
| 2026-05-06 19:23 | 50.87622 | 7.12477 | 234 ft | 9 kts | 16° |
| 2026-05-06 19:23 | 50.87678 | 7.12506 | 237 ft | 9 kts | 17° |
| 2026-05-06 19:24 | 50.87740 | 7.12540 | 236 ft | 10 kts | 30° |
| 2026-05-06 19:24 | 50.87768 | 7.12645 | 235 ft | 11 kts | 81° |
| 2026-05-06 19:24 | 50.87733 | 7.12752 | 235 ft | 12 kts | 139° |
| 2026-05-06 19:24 | 50.87661 | 7.12853 | 235 ft | 16 kts | 137° |
| 2026-05-06 19:25 | 50.87577 | 7.12977 | 235 ft | 18 kts | 137° |
| 2026-05-06 19:25 | 50.87478 | 7.13120 | 235 ft | 20 kts | 137° |
| 2026-05-06 19:25 | 50.87371 | 7.13275 | 235 ft | 22 kts | 137° |
| 2026-05-06 19:25 | 50.87257 | 7.13440 | 236 ft | 22 kts | 137° |
| 2026-05-06 19:26 | 50.87145 | 7.13602 | 240 ft | 21 kts | 137° |
| 2026-05-06 19:26 | 50.87052 | 7.13736 | 244 ft | 17 kts | 138° |
| 2026-05-06 19:26 | 50.86966 | 7.13860 | 248 ft | 16 kts | 137° |
| 2026-05-06 19:26 | 50.86895 | 7.13965 | 255 ft | 12 kts | 137° |
| 2026-05-06 19:27 | 50.86838 | 7.14046 | 257 ft | 11 kts | 138° |
| 2026-05-06 19:27 | 50.86770 | 7.14126 | 257 ft | 13 kts | 161° |
| 2026-05-06 19:27 | 50.86697 | 7.14189 | 261 ft | 11 kts | 140° |
| 2026-05-06 19:27 | 50.86644 | 7.14265 | 263 ft | 10 kts | 136° |
| 2026-05-06 19:28 | 50.86589 | 7.14347 | 264 ft | 12 kts | 137° |
| 2026-05-06 19:28 | 50.86522 | 7.14444 | 267 ft | 13 kts | 136° |
| 2026-05-06 19:28 | 50.86456 | 7.14542 | 271 ft | 13 kts | 136° |
| 2026-05-06 19:28 | 50.86391 | 7.14638 | 275 ft | 13 kts | 138° |
| 2026-05-06 19:29 | 50.86322 | 7.14737 | 279 ft | 14 kts | 138° |
| 2026-05-06 19:29 | 50.86244 | 7.14847 | 283 ft | 16 kts | 138° |
| 2026-05-06 19:29 | 50.86151 | 7.14980 | 288 ft | 20 kts | 137° |
| 2026-05-06 19:29 | 50.86050 | 7.15130 | 293 ft | 20 kts | 137° |
| 2026-05-06 19:30 | 50.85953 | 7.15269 | 300 ft | 18 kts | 137° |
| 2026-05-06 19:30 | 50.85861 | 7.15401 | 301 ft | 18 kts | 137° |
| 2026-05-06 19:30 | 50.85772 | 7.15530 | 304 ft | 17 kts | 137° |
| 2026-05-06 19:30 | 50.85686 | 7.15656 | 307 ft | 17 kts | 137° |
| 2026-05-06 19:31 | 50.85601 | 7.15779 | 307 ft | 16 kts | 137° |
| 2026-05-06 19:31 | 50.85518 | 7.15899 | 310 ft | 16 kts | 137° |
| 2026-05-06 19:31 | 50.85363 | 7.16132 | 310 ft | 12 kts | 124° |
| 2026-05-06 19:32 | 50.85335 | 7.16262 | 310 ft | 13 kts | 93° |
| 2026-05-06 19:32 | 50.85360 | 7.16404 | 312 ft | 11 kts | 57° |
| 2026-05-06 19:32 | 50.85381 | 7.16445 | 311 ft | 2 kts | 45° |
| 2026-05-06 19:32 | 50.85382 | 7.16447 | 310 ft | 0 kts | 44° |
| 2026-05-06 19:34 | 50.85393 | 7.16463 | 310 ft | 6 kts | 41° |
| 2026-05-06 19:34 | 50.85459 | 7.16514 | 310 ft | 15 kts | 12° |
| 2026-05-06 19:34 | 50.85530 | 7.16535 | 311 ft | 7 kts | 15° |
| 2026-05-06 19:34 | 50.85567 | 7.16502 | 310 ft | 8 kts | 319° |
| 2026-05-06 19:35 | 50.85722 | 7.16277 | 310 ft | 67 kts | 317° |
| 2026-05-06 19:35 | 50.86040 | 7.15818 | 299 ft | 118 kts | 317° |
| 2026-05-06 19:35 | 50.86809 | 7.14705 | 368 ft | 171 kts | 318° |
| 2026-05-06 19:35 | 50.87997 | 7.12985 | 1598 ft | 168 kts | 319° |
| 2026-05-06 19:36 | 50.88569 | 7.12171 | 2237 ft | 170 kts | 321° |
| 2026-05-06 19:36 | 50.90051 | 7.10924 | 2712 ft | 197 kts | 349° |
| 2026-05-06 19:36 | 50.91006 | 7.10900 | 2958 ft | 212 kts | 10° |
| 2026-05-06 19:36 | 50.92326 | 7.11884 | 3847 ft | 209 kts | 39° |
| 2026-05-06 19:37 | 50.93319 | 7.13571 | 4595 ft | 219 kts | 52° |
| 2026-05-06 19:37 | 50.94097 | 7.15786 | 5076 ft | 240 kts | 61° |
| 2026-05-06 19:37 | 50.94871 | 7.18250 | 5548 ft | 259 kts | 61° |
| 2026-05-06 19:37 | 50.95701 | 7.20879 | 6137 ft | 271 kts | 61° |
| 2026-05-06 19:38 | 50.96545 | 7.23550 | 7041 ft | 271 kts | 61° |
| 2026-05-06 19:38 | 50.97397 | 7.26234 | 7856 ft | 273 kts | 60° |
| 2026-05-06 19:38 | 50.98249 | 7.28929 | 8737 ft | 274 kts | 60° |
| 2026-05-06 19:38 | 50.99107 | 7.31650 | 9566 ft | 277 kts | 60° |
| 2026-05-06 19:39 | 50.99974 | 7.34403 | 10274 ft | 284 kts | 60° |
| 2026-05-06 19:39 | 51.00887 | 7.37298 | 10600 ft | 303 kts | 61° |
| 2026-05-06 19:39 | 51.01682 | 7.40474 | 10863 ft | 325 kts | 77° |
| 2026-05-06 19:39 | 51.01683 | 7.44196 | 11257 ft | 344 kts | 100° |
| 2026-05-06 19:40 | 51.00994 | 7.47854 | 11731 ft | 356 kts | 105° |
| 2026-05-06 19:40 | 51.00245 | 7.51658 | 12273 ft | 363 kts | 105° |
| 2026-05-06 19:40 | 50.99490 | 7.55506 | 12953 ft | 367 kts | 106° |
| 2026-05-06 19:40 | 50.98727 | 7.59398 | 13591 ft | 372 kts | 108° |
| 2026-05-06 19:41 | 50.97949 | 7.63352 | 14149 ft | 377 kts | 108° |
| 2026-05-06 19:41 | 50.97162 | 7.67345 | 14760 ft | 380 kts | 108° |
| 2026-05-06 19:41 | 50.96368 | 7.71368 | 15358 ft | 384 kts | 108° |
| 2026-05-06 19:41 | 50.95565 | 7.75430 | 15954 ft | 387 kts | 108° |
| 2026-05-06 19:42 | 50.95088 | 7.79646 | 16520 ft | 391 kts | 90° |
| 2026-05-06 19:42 | 50.95460 | 7.83920 | 17100 ft | 394 kts | 72° |
| 2026-05-06 19:42 | 50.96590 | 7.87905 | 17395 ft | 397 kts | 59° |
| 2026-05-06 19:42 | 50.97954 | 7.91720 | 17530 ft | 399 kts | 59° |
| 2026-05-06 19:43 | 50.99330 | 7.95525 | 17592 ft | 398 kts | 59° |
| 2026-05-06 19:43 | 51.00720 | 7.99329 | 17781 ft | 399 kts | 59° |
| 2026-05-06 19:43 | 51.02120 | 8.03142 | 17861 ft | 400 kts | 59° |
| 2026-05-06 19:43 | 51.03523 | 8.06955 | 17836 ft | 401 kts | 59° |
| 2026-05-06 19:44 | 51.04936 | 8.10801 | 17844 ft | 406 kts | 59° |
| 2026-05-06 19:44 | 51.06346 | 8.14640 | 17894 ft | 406 kts | 59° |
| 2026-05-06 19:44 | 51.07764 | 8.18507 | 18424 ft | 405 kts | 59° |
| 2026-05-06 19:44 | 51.09186 | 8.22393 | 18926 ft | 408 kts | 59° |
| 2026-05-06 19:45 | 51.10613 | 8.26317 | 19397 ft | 411 kts | 59° |
| 2026-05-06 19:45 | 51.12047 | 8.30268 | 19886 ft | 413 kts | 59° |
| 2026-05-06 19:45 | 51.13489 | 8.34246 | 20363 ft | 416 kts | 60° |
| 2026-05-06 19:45 | 51.14939 | 8.38251 | 20828 ft | 419 kts | 60° |
| 2026-05-06 19:46 | 51.16395 | 8.42280 | 21295 ft | 421 kts | 60° |
| 2026-05-06 19:46 | 51.17864 | 8.46351 | 21756 ft | 424 kts | 60° |
| 2026-05-06 19:46 | 51.19340 | 8.50445 | 22218 ft | 427 kts | 60° |
| 2026-05-06 19:46 | 51.21017 | 8.54363 | 22663 ft | 429 kts | 49° |
| 2026-05-06 19:47 | 51.22924 | 8.57954 | 23114 ft | 432 kts | 50° |
| 2026-05-06 19:47 | 51.24858 | 8.61650 | 23505 ft | 436 kts | 50° |
| 2026-05-06 19:47 | 51.26807 | 8.65372 | 23814 ft | 440 kts | 50° |
| 2026-05-06 19:47 | 51.28771 | 8.69129 | 24282 ft | 440 kts | 50° |
| 2026-05-06 19:48 | 51.30740 | 8.72898 | 24613 ft | 445 kts | 50° |
| 2026-05-06 19:48 | 51.32730 | 8.76713 | 25008 ft | 447 kts | 50° |
| 2026-05-06 19:48 | 51.34721 | 8.80536 | 25372 ft | 450 kts | 50° |
| 2026-05-06 19:48 | 51.36733 | 8.84405 | 25738 ft | 452 kts | 50° |
| 2026-05-06 19:49 | 51.38750 | 8.88278 | 26103 ft | 455 kts | 50° |
| 2026-05-06 19:49 | 51.40786 | 8.92194 | 26454 ft | 458 kts | 50° |
| 2026-05-06 19:49 | 51.42824 | 8.96118 | 26814 ft | 460 kts | 50° |
| 2026-05-06 19:49 | 51.44881 | 9.00088 | 27154 ft | 463 kts | 50° |